Prides Crossing, Massachusetts
Current Conditions -  °F | °C
As of 7:53 PM on Tuesday 21 Oct 2014 (Local Time) from KBVY Reporting Station
Overcast Overcast  
Wind Chill: 56°   Ceiling: 600
Heat Index: 56°   Visibility: 10mi
Dew Point: 53°   Wind: 8mph
Humidity: 90%   Direction: 20°NNE
Pressure: 29.95"   Gusts: NA
Location:  42.56°N, 70.82°W
Report Text: KBVY 212353Z 02007KT 10SM OVC006 13/12 A2995 RMK AO2 SLP136 60000 T01330117 10156 20133 51009
Loading
Personal Weather Stations






























Interactive Weather Map
Tropical Storm Tracking
New forecast layout! Learn more

10-Day Weather Forecast

Advertisements
Track Severe Weather on mobile